Time;durP1;ratioP1;P1;durP2;ratioP2;P2;SDS_P1;SDS_P2;PMS_P1;PMS_P2;Temp;Humidity;BMP_temperature;BMP_pressure;BME280_temperature;BME280_humidity;BME280_pressure;Samples;Min_cycle;Max_cycle;Signal;HPM_P1;HPM_P2
2022/08/16 00:02:05;;;;;;;23.10;20.43;;;22.60;99.90;;;;;;5012667;28;20437;-47
2022/08/16 00:04:31;;;;;;;22.80;20.80;;;22.60;99.90;;;;;;5011443;28;20473;-46
2022/08/16 00:06:58;;;;;;;24.07;21.97;;;22.60;99.90;;;;;;5012769;28;20428;-46
2022/08/16 00:09:26;;;;;;;23.20;21.00;;;22.60;99.90;;;;;;5012149;28;20984;-46
2022/08/16 00:11:53;;;;;;;23.00;20.87;;;22.50;99.90;;;;;;5011970;28;20441;-46
2022/08/16 00:14:22;;;;;;;22.33;20.30;;;22.50;99.90;;;;;;5012480;28;20809;-47
2022/08/16 00:16:49;;;;;;;25.77;23.57;;;22.50;99.90;;;;;;5012543;28;20436;-46
2022/08/16 00:19:18;;;;;;;24.73;22.60;;;22.50;99.90;;;;;;5012043;28;20489;-48
2022/08/16 00:21:46;;;;;;;23.87;21.70;;;22.50;99.90;;;;;;5012396;28;20435;-46
2022/08/16 00:24:15;;;;;;;23.17;21.03;;;22.50;99.90;;;;;;5012289;28;20437;-47
2022/08/16 00:26:44;;;;;;;24.20;21.83;;;22.40;99.90;;;;;;5012276;28;20807;-46
2022/08/16 00:29:12;;;;;;;24.90;22.60;;;22.40;99.90;;;;;;5011809;28;20564;-46
2022/08/16 00:31:39;;;;;;;23.40;21.40;;;22.10;99.90;;;;;;5027016;28;20445;-46
2022/08/16 00:34:05;;;;;;;24.10;21.80;;;22.20;99.90;;;;;;5012919;28;20440;-46
2022/08/16 00:36:32;;;;;;;23.30;21.20;;;22.30;99.90;;;;;;5013574;28;20445;-46
2022/08/16 00:38:59;;;;;;;25.37;22.97;;;22.60;99.90;;;;;;5017080;28;20468;-46
2022/08/16 00:41:28;;;;;;;25.17;22.87;;;22.10;99.90;;;;;;5019170;28;20436;-46
2022/08/16 00:43:56;;;;;;;26.50;24.20;;;22.20;99.90;;;;;;5034087;28;20555;-45
2022/08/16 00:46:27;;;;;;;24.57;22.33;;;22.20;99.90;;;;;;5034457;28;20836;-46
2022/08/16 00:48:54;;;;;;;23.30;21.10;;;22.20;99.90;;;;;;5016146;28;20968;-46
2022/08/16 00:51:22;;;;;;;18.80;17.20;;;22.20;99.90;;;;;;5018294;28;20467;-46
2022/08/16 00:53:50;;;;;;;17.47;16.00;;;22.10;99.90;;;;;;5017870;28;20440;-47
2022/08/16 00:56:20;;;;;;;21.07;18.93;;;21.90;99.90;;;;;;5031732;28;20801;-45
2022/08/16 00:58:48;;;;;;;20.73;18.70;;;21.90;99.90;;;;;;5017229;28;20862;-46
2022/08/16 01:01:17;;;;;;;20.87;19.17;;;22.10;99.90;;;;;;5030945;28;20481;-45
2022/08/16 01:03:47;;;;;;;18.97;17.30;;;22.10;99.90;;;;;;5016206;28;20438;-46
2022/08/16 01:06:15;;;;;;;17.97;16.23;;;21.90;99.90;;;;;;5012281;28;20448;-47
2022/08/16 01:08:46;;;;;;;16.80;15.40;;;22.10;99.90;;;;;;5013380;28;20916;-45
2022/08/16 01:11:13;;;;;;;15.97;14.57;;;22.10;99.90;;;;;;5014208;28;20451;-45
2022/08/16 01:13:41;;;;;;;18.00;16.60;;;22.00;99.90;;;;;;5028724;28;20451;-46
2022/08/16 01:16:12;;;;;;;18.40;16.80;;;22.00;99.90;;;;;;5013243;28;20439;-46
2022/08/16 01:18:44;;;;;;;15.90;14.53;;;22.00;99.90;;;;;;5026801;28;20596;-47
2022/08/16 01:21:27;;;;;;;17.30;15.80;;;22.10;99.90;;;;;;5027042;28;20475;-47
2022/08/16 01:24:18;;;;;;;18.53;17.00;;;22.00;99.90;;;;;;5030668;28;20448;-47
2022/08/16 01:26:47;;;;;;;15.57;14.27;;;21.70;99.90;;;;;;5015477;28;20937;-46
2022/08/16 01:29:23;;;;;;;19.43;17.70;;;21.90;99.90;;;;;;5030252;28;20476;-47
2022/08/16 01:31:50;;;;;;;18.10;16.47;;;21.90;99.90;;;;;;5014071;28;20479;-47
2022/08/16 01:34:17;;;;;;;21.23;17.13;;;21.80;99.90;;;;;;5029646;28;20453;-46
2022/08/16 01:36:44;;;;;;;17.73;16.20;;;21.50;99.90;;;;;;5014041;28;20579;-47
2022/08/16 01:39:14;;;;;;;19.50;17.27;;;21.80;99.90;;;;;;5030072;28;20518;-47
2022/08/16 01:41:42;;;;;;;18.13;16.30;;;21.80;99.90;;;;;;5030342;28;20491;-47
2022/08/16 01:44:09;;;;;;;18.20;16.60;;;21.90;99.90;;;;;;5030479;28;20452;-47
2022/08/16 01:46:40;;;;;;;16.87;15.40;;;21.80;99.90;;;;;;5030274;28;20456;-46
2022/08/16 01:49:14;;;;;;;18.67;17.10;;;21.70;99.90;;;;;;5029840;28;20474;-46
2022/08/16 01:51:45;;;;;;;18.77;17.10;;;21.70;99.90;;;;;;5030428;28;20446;-46
2022/08/16 01:54:15;;;;;;;17.63;16.00;;;21.80;99.90;;;;;;5014046;28;20456;-47
2022/08/16 01:56:51;;;;;;;18.90;17.10;;;21.70;99.90;;;;;;5030291;28;20462;-47
2022/08/16 01:59:19;;;;;;;19.00;17.40;;;21.60;99.90;;;;;;5029873;28;20474;-47
2022/08/16 02:01:49;;;;;;;18.23;16.53;;;21.60;99.90;;;;;;5030151;28;20676;-46
2022/08/16 02:04:16;;;;;;;19.13;17.47;;;21.60;99.90;;;;;;5030160;28;20459;-47
2022/08/16 02:06:42;;;;;;;19.03;17.43;;;21.60;99.90;;;;;;5030160;28;20936;-47
2022/08/16 02:09:11;;;;;;;19.00;17.30;;;21.50;99.90;;;;;;5029406;28;20471;-47
2022/08/16 02:11:41;;;;;;;22.27;20.27;;;21.50;99.90;;;;;;5030015;28;20451;-47
2022/08/16 02:14:08;;;;;;;19.60;17.73;;;21.50;99.90;;;;;;5014777;28;20439;-47
2022/08/16 02:16:36;;;;;;;19.03;17.40;;;21.60;99.90;;;;;;5014697;28;20435;-47
2022/08/16 02:19:03;;;;;;;20.97;18.77;;;21.40;99.90;;;;;;5029083;28;20857;-47
2022/08/16 02:21:30;;;;;;;21.90;19.80;;;21.40;99.90;;;;;;5029777;28;20567;-47
2022/08/16 02:23:57;;;;;;;19.50;17.63;;;21.50;99.90;;;;;;5014425;28;20541;-46
2022/08/16 02:26:24;;;;;;;19.40;17.60;;;21.60;99.90;;;;;;5029614;28;20869;-47
2022/08/16 02:28:52;;;;;;;22.00;19.73;;;21.30;99.90;;;;;;5014055;28;21055;-47
2022/08/16 02:31:19;;;;;;;19.43;17.73;;;21.40;99.90;;;;;;5014149;28;20762;-47
2022/08/16 02:33:46;;;;;;;19.47;17.87;;;21.20;99.90;;;;;;5013456;28;20806;-47
2022/08/16 02:36:19;;;;;;;18.53;16.97;;;21.40;99.90;;;;;;5029508;28;20467;-46
2022/08/16 02:38:46;;;;;;;21.30;19.50;;;21.50;99.90;;;;;;5013825;28;20455;-48
2022/08/16 02:41:13;;;;;;;20.90;18.90;;;21.40;99.90;;;;;;5029221;28;20541;-47
2022/08/16 02:43:40;;;;;;;20.20;18.50;;;21.70;99.90;;;;;;5029253;28;20510;-47
2022/08/16 02:46:09;;;;;;;19.50;17.80;;;21.40;99.90;;;;;;5012747;28;20460;-46
2022/08/16 02:48:38;;;;;;;22.43;20.33;;;21.50;99.90;;;;;;5028483;28;20507;-47
2022/08/16 02:51:06;;;;;;;21.27;19.47;;;21.40;99.90;;;;;;5014223;28;20908;-47
2022/08/16 02:53:34;;;;;;;23.23;20.90;;;21.30;99.90;;;;;;5029130;28;20454;-46
2022/08/16 02:56:01;;;;;;;21.90;19.60;;;21.40;99.90;;;;;;5013870;28;20439;-47
2022/08/16 02:58:28;;;;;;;21.50;19.30;;;21.40;99.90;;;;;;5028490;28;20446;-47
2022/08/16 03:00:56;;;;;;;21.80;20.00;;;21.10;99.90;;;;;;5013934;28;20490;-46
2022/08/16 03:03:25;;;;;;;22.33;20.40;;;21.30;99.90;;;;;;5028971;28;20486;-46
2022/08/16 03:05:52;;;;;;;21.90;20.00;;;21.30;99.90;;;;;;5012263;28;20462;-45
2022/08/16 03:08:20;;;;;;;22.40;20.40;;;21.30;99.90;;;;;;5028803;28;20448;-46
2022/08/16 03:10:49;;;;;;;22.50;20.60;;;21.30;99.90;;;;;;5028553;28;20455;-47
2022/08/16 03:13:17;;;;;;;23.73;21.57;;;21.20;99.90;;;;;;5028618;28;20830;-48
2022/08/16 03:15:44;;;;;;;22.53;20.53;;;21.20;99.90;;;;;;5013285;28;20443;-47
2022/08/16 03:18:11;;;;;;;24.77;22.37;;;21.20;99.90;;;;;;5011838;28;20450;-47
2022/08/16 03:20:40;;;;;;;23.77;21.20;;;21.20;99.90;;;;;;5027987;28;20580;-46
2022/08/16 03:23:09;;;;;;;22.87;20.30;;;21.10;99.90;;;;;;5012089;28;20466;-46
2022/08/16 03:25:36;;;;;;;25.10;22.63;;;21.30;99.90;;;;;;5028381;28;20459;-47
2022/08/16 03:28:04;;;;;;;22.60;20.40;;;21.20;99.90;;;;;;5013143;28;20518;-47
2022/08/16 03:30:32;;;;;;;24.07;22.03;;;21.20;99.90;;;;;;5011207;28;20463;-47
2022/08/16 03:33:03;;;;;;;22.70;20.70;;;21.10;99.90;;;;;;5028333;28;20450;-46
2022/08/16 03:35:37;;;;;;;25.43;23.03;;;21.10;99.90;;;;;;5028253;28;20454;-47
2022/08/16 03:38:15;;;;;;;23.93;21.67;;;21.10;99.90;;;;;;5028155;28;20482;-47
2022/08/16 03:40:47;;;;;;;25.00;22.60;;;21.00;99.90;;;;;;5027886;28;20485;-47
2022/08/16 03:43:13;;;;;;;24.37;21.97;;;21.10;99.90;;;;;;5013209;28;20466;-48
2022/08/16 03:45:41;;;;;;;26.50;23.90;;;21.20;99.90;;;;;;5010506;28;20513;-47
2022/08/16 03:48:09;;;;;;;26.33;23.73;;;21.10;99.90;;;;;;5027809;28;20463;-46
2022/08/16 03:50:36;;;;;;;24.10;21.80;;;21.10;99.90;;;;;;5027757;28;20545;-46
2022/08/16 03:53:05;;;;;;;23.97;21.77;;;21.00;99.90;;;;;;5011281;28;20450;-46
2022/08/16 03:55:33;;;;;;;25.37;22.70;;;21.10;99.90;;;;;;5027844;28;20455;-47
2022/08/16 03:58:00;;;;;;;25.10;22.40;;;21.00;99.90;;;;;;5027786;28;20541;-47
2022/08/16 04:00:30;;;;;;;25.03;22.83;;;21.00;99.90;;;;;;5027173;28;20487;-48
2022/08/16 04:03:05;;;;;;;23.77;21.70;;;21.10;99.90;;;;;;5027849;28;20447;-47
2022/08/16 04:05:34;;;;;;;24.20;21.73;;;21.00;99.90;;;;;;5027707;28;20944;-47
2022/08/16 04:08:01;;;;;;;24.17;22.00;;;21.00;99.90;;;;;;5027557;28;20485;-47
2022/08/16 04:10:28;;;;;;;24.37;21.90;;;21.10;99.90;;;;;;5027209;28;20481;-47
2022/08/16 04:12:56;;;;;;;26.30;23.60;;;21.10;99.90;;;;;;5027637;28;20904;-47
2022/08/16 04:15:24;;;;;;;25.40;22.87;;;20.80;99.90;;;;;;5027447;28;20463;-48
2022/08/16 04:18:05;;;;;;;24.93;22.63;;;21.00;99.90;;;;;;5027372;28;20459;-48
2022/08/16 04:20:32;;;;;;;26.80;24.50;;;20.90;99.90;;;;;;5027072;28;20485;-46
2022/08/16 04:23:00;;;;;;;24.67;22.30;;;21.00;99.90;;;;;;5027161;28;20452;-47
2022/08/16 04:25:29;;;;;;;24.50;22.27;;;21.00;99.90;;;;;;5027260;28;20522;-48
2022/08/16 04:27:57;;;;;;;25.40;22.90;;;21.10;99.90;;;;;;5010534;28;20471;-47
2022/08/16 04:30:23;;;;;;;25.10;22.90;;;21.10;99.90;;;;;;5026471;28;20859;-47
2022/08/16 04:32:51;;;;;;;26.10;23.73;;;21.10;99.90;;;;;;5026710;28;20525;-47
2022/08/16 04:35:20;;;;;;;28.47;24.53;;;21.00;99.90;;;;;;5011984;28;20436;-48
2022/08/16 04:37:49;;;;;;;25.93;23.40;;;21.10;99.90;;;;;;5027114;28;20774;-48
2022/08/16 04:40:23;;;;;;;25.47;23.13;;;21.20;99.90;;;;;;5026754;28;20472;-47
2022/08/16 04:42:51;;;;;;;23.83;21.43;;;21.20;99.90;;;;;;5027233;28;21014;-47
2022/08/16 04:45:23;;;;;;;25.37;22.77;;;21.20;99.90;;;;;;5026861;28;20467;-46
2022/08/16 04:47:50;;;;;;;25.03;22.43;;;21.10;99.90;;;;;;5026960;28;21022;-48
2022/08/16 04:50:21;;;;;;;25.80;23.33;;;21.60;99.90;;;;;;5026254;28;20475;-47
2022/08/16 04:52:58;;;;;;;25.03;22.30;;;21.40;99.90;;;;;;5011699;28;20455;-48
2022/08/16 04:55:28;;;;;;;25.17;22.80;;;21.50;99.90;;;;;;5026804;28;20964;-47
2022/08/16 04:57:56;;;;;;;26.17;23.87;;;21.50;99.90;;;;;;5011453;28;20432;-48
2022/08/16 05:00:27;;;;;;;24.43;22.13;;;21.60;99.90;;;;;;5026210;28;20989;-46
2022/08/16 05:02:54;;;;;;;22.93;20.60;;;21.60;99.90;;;;;;5026830;28;20463;-48
2022/08/16 05:05:22;;;;;;;25.43;23.20;;;21.70;99.90;;;;;;5011604;28;20803;-48
2022/08/16 05:07:49;;;;;;;23.63;21.63;;;21.80;99.90;;;;;;5011404;28;20485;-47
2022/08/16 05:10:17;;;;;;;24.13;21.87;;;21.50;99.90;;;;;;5026486;28;20526;-47
2022/08/16 05:12:43;;;;;;;23.87;21.77;;;22.00;99.90;;;;;;5026771;28;20444;-47
2022/08/16 05:15:11;;;;;;;20.80;19.00;;;22.10;99.90;;;;;;5026592;28;20522;-47
2022/08/16 05:17:40;;;;;;;21.33;19.43;;;22.30;99.90;;;;;;5010169;28;20460;-48
2022/08/16 05:20:11;;;;;;;24.50;21.90;;;22.90;99.90;;;;;;5026145;28;20481;-48
2022/08/16 05:22:41;;;;;;;21.93;19.93;;;22.50;99.90;;;;;;5026193;28;20481;-49
2022/08/16 05:25:10;;;;;;;22.27;20.37;;;22.60;99.90;;;;;;5026608;28;20449;-47
2022/08/16 05:27:42;;;;;;;23.80;21.63;;;22.70;99.90;;;;;;5026438;28;20460;-48
2022/08/16 05:30:11;;;;;;;21.80;19.73;;;22.80;99.90;;;;;;5026306;28;20525;-48
2022/08/16 05:32:41;;;;;;;23.27;20.90;;;22.90;99.90;;;;;;5026543;28;20457;-47
2022/08/16 05:35:10;;;;;;;17.90;16.40;;;23.00;99.90;;;;;;5026304;28;20504;-48
2022/08/16 05:37:39;;;;;;;19.93;18.23;;;23.10;99.90;;;;;;5026273;28;20448;-48
2022/08/16 05:40:09;;;;;;;21.47;19.27;;;23.10;99.90;;;;;;5026088;28;20777;-48
2022/08/16 05:42:36;;;;;;;19.73;17.93;;;23.20;99.90;;;;;;5026073;28;20763;-47
2022/08/16 05:45:05;;;;;;;22.60;20.60;;;23.30;99.90;;;;;;5026356;28;20474;-49
2022/08/16 05:47:33;;;;;;;22.20;20.50;;;23.30;99.90;;;;;;5026499;28;20471;-48
2022/08/16 05:50:01;;;;;;;22.10;19.93;;;23.40;99.90;;;;;;5010350;28;20457;-48
2022/08/16 05:52:29;;;;;;;23.23;21.03;;;23.50;99.90;;;;;;5026066;28;20501;-49
2022/08/16 05:54:55;;;;;;;22.40;20.40;;;23.60;99.90;;;;;;5026070;28;20450;-49
2022/08/16 05:57:23;;;;;;;23.10;20.90;;;23.70;99.90;;;;;;5009561;28;20848;-48
2022/08/16 05:59:51;;;;;;;19.93;18.20;;;23.80;99.90;;;;;;5025819;28;20493;-47
2022/08/16 06:02:20;;;;;;;20.63;18.93;;;23.80;99.90;;;;;;5025799;28;20840;-48
2022/08/16 06:04:47;;;;;;;19.47;17.87;;;24.30;99.90;;;;;;5010556;28;20446;-49
2022/08/16 06:07:17;;;;;;;21.70;19.77;;;24.00;99.90;;;;;;5025795;28;20463;-47
2022/08/16 06:09:50;;;;;;;22.13;20.13;;;24.00;99.90;;;;;;5027869;28;20482;-47
2022/08/16 06:12:17;;;;;;;27.53;25.00;;;24.10;99.90;;;;;;5014403;28;20443;-47
2022/08/16 06:14:44;;;;;;;20.83;18.73;;;24.20;99.90;;;;;;5029971;28;20916;-47
2022/08/16 06:17:11;;;;;;;20.17;18.37;;;24.20;99.90;;;;;;5029285;28;20511;-48
2022/08/16 06:19:37;;;;;;;20.80;19.10;;;24.30;99.90;;;;;;5028800;28;20558;-48
2022/08/16 06:22:12;;;;;;;23.17;21.07;;;24.40;99.90;;;;;;5029317;28;20541;-46
2022/08/16 06:24:43;;;;;;;20.13;18.43;;;24.40;99.90;;;;;;5029264;28;20483;-48
2022/08/16 06:27:09;;;;;;;20.20;18.30;;;24.50;99.90;;;;;;5029055;28;20463;-49
2022/08/16 06:29:36;;;;;;;21.97;20.07;;;24.50;99.90;;;;;;5013415;28;20451;-48
2022/08/16 06:32:04;;;;;;;21.03;19.20;;;24.60;99.90;;;;;;5028892;28;20460;-47
2022/08/16 06:34:31;;;;;;;19.10;17.37;;;24.60;99.90;;;;;;5029175;28;20453;-48
2022/08/16 06:36:58;;;;;;;20.10;18.20;;;24.70;99.90;;;;;;5028551;28;20498;-48
2022/08/16 06:39:25;;;;;;;18.23;16.67;;;24.70;99.90;;;;;;5012963;28;20460;-49
2022/08/16 06:41:58;;;;;;;18.80;17.10;;;24.80;99.90;;;;;;5028628;28;20893;-48
2022/08/16 06:44:49;;;;;;;17.97;16.30;;;24.80;99.90;;;;;;5028979;28;20455;-48
2022/08/16 06:47:36;;;;;;;19.40;17.73;;;24.80;99.90;;;;;;5013320;28;20448;-49
2022/08/16 06:50:03;;;;;;;17.70;16.10;;;24.80;99.90;;;;;;5013173;28;20452;-48
2022/08/16 06:52:37;;;;;;;19.87;17.77;;;24.80;99.90;;;;;;5028530;28;20936;-48
2022/08/16 06:55:07;;;;;;;20.53;18.33;;;24.90;99.90;;;;;;5028736;28;20540;-46
2022/08/16 06:57:36;;;;;;;18.33;16.80;;;24.90;99.90;;;;;;5028091;28;20506;-47
2022/08/16 07:00:11;;;;;;;18.10;16.70;;;24.80;99.90;;;;;;5028367;28;20525;-48
2022/08/16 07:02:41;;;;;;;19.13;17.43;;;25.00;99.90;;;;;;5028453;28;20828;-48
2022/08/16 07:05:09;;;;;;;18.63;16.90;;;25.00;99.90;;;;;;5028466;28;20451;-46
2022/08/16 07:07:38;;;;;;;19.80;17.93;;;25.00;99.90;;;;;;5028203;28;20828;-48
2022/08/16 07:10:07;;;;;;;19.57;17.60;;;25.10;99.90;;;;;;5028294;28;20472;-49
2022/08/16 07:12:36;;;;;;;19.00;17.20;;;25.10;99.90;;;;;;5028155;28;21063;-48
2022/08/16 07:15:04;;;;;;;18.20;16.70;;;25.20;99.90;;;;;;5028675;28;20540;-48
2022/08/16 07:17:31;;;;;;;15.43;14.13;;;25.20;99.90;;;;;;5028398;28;20964;-48
2022/08/16 07:19:59;;;;;;;18.17;16.37;;;25.20;99.90;;;;;;5028427;28;20484;-49
2022/08/16 07:22:31;;;;;;;17.73;16.10;;;25.20;99.90;;;;;;5028433;28;20562;-48
2022/08/16 07:24:58;;;;;;;17.30;15.70;;;25.30;99.90;;;;;;5028500;28;20542;-48
2022/08/16 07:27:25;;;;;;;18.47;16.97;;;25.30;99.90;;;;;;5029571;28;20457;-48
2022/08/16 07:29:53;;;;;;;25.97;17.40;;;25.30;99.90;;;;;;5029043;28;20856;-47
2022/08/16 07:32:20;;;;;;;21.57;17.83;;;25.40;99.90;;;;;;5029775;28;20539;-46
2022/08/16 07:34:47;;;;;;;16.90;15.33;;;25.30;99.90;;;;;;5029567;28;20510;-48
2022/08/16 07:37:14;;;;;;;17.93;16.33;;;25.40;99.90;;;;;;5029059;28;20880;-47
2022/08/16 07:39:54;;;;;;;17.67;16.07;;;25.50;99.90;;;;;;5028826;28;20854;-47
2022/08/16 07:42:21;;;;;;;19.20;17.53;;;25.50;99.90;;;;;;5012744;28;20563;-49
2022/08/16 07:44:48;;;;;;;18.53;16.90;;;25.50;99.90;;;;;;5028729;28;20452;-47
2022/08/16 07:47:16;;;;;;;17.67;15.90;;;25.50;99.90;;;;;;5028837;28;20875;-47
2022/08/16 07:49:43;;;;;;;19.50;17.63;;;25.50;99.90;;;;;;5027765;28;20495;-48
2022/08/16 07:52:10;;;;;;;18.17;16.50;;;25.50;99.90;;;;;;5028918;28;20602;-47
2022/08/16 07:54:37;;;;;;;17.37;15.80;;;25.60;99.90;;;;;;5012847;28;20511;-47
2022/08/16 07:57:07;;;;;;;16.57;15.17;;;25.60;99.90;;;;;;5027964;28;20468;-48
2022/08/16 07:59:34;;;;;;;16.33;14.80;;;25.60;99.90;;;;;;5027353;28;20473;-49
2022/08/16 08:02:02;;;;;;;15.47;14.07;;;25.60;99.90;;;;;;5027806;28;20543;-48
2022/08/16 08:04:32;;;;;;;16.20;14.80;;;25.60;99.90;;;;;;5011184;28;20457;-49
2022/08/16 08:06:59;;;;;;;16.47;14.60;;;25.70;99.90;;;;;;5027486;28;20555;-47
2022/08/16 08:09:26;;;;;;;15.77;14.47;;;25.70;99.90;;;;;;5026775;28;20523;-48
2022/08/16 08:11:53;;;;;;;16.60;14.90;;;25.80;99.90;;;;;;5027625;28;20506;-47
2022/08/16 08:14:20;;;;;;;15.93;14.47;;;25.80;99.90;;;;;;5012487;28;20460;-49
2022/08/16 08:16:48;;;;;;;16.60;15.13;;;25.80;99.90;;;;;;5027144;28;20536;-46
2022/08/16 08:19:23;;;;;;;15.17;13.20;;;25.80;99.90;;;;;;5026949;28;20557;-49
2022/08/16 08:21:53;;;;;;;15.67;14.27;;;25.80;99.60;;;;;;5027408;28;20513;-49
2022/08/16 08:24:22;;;;;;;14.27;13.07;;;25.80;99.50;;;;;;5027003;28;20458;-48
2022/08/16 08:26:49;;;;;;;13.97;12.67;;;25.90;99.90;;;;;;5025435;28;20957;-46
2022/08/16 08:29:16;;;;;;;15.63;14.23;;;25.90;99.50;;;;;;5009704;28;21055;-48
2022/08/16 08:31:43;;;;;;;15.37;14.13;;;25.90;99.60;;;;;;5010313;28;20444;-47
2022/08/16 08:34:10;;;;;;;15.23;13.83;;;26.00;99.40;;;;;;5007645;28;20457;-49
2022/08/16 08:36:37;;;;;;;14.37;13.03;;;26.00;99.30;;;;;;4991074;28;20503;-46
2022/08/16 08:39:22;;;;;;;14.10;13.00;;;26.10;99.30;;;;;;4990246;28;20811;-48
2022/08/16 08:41:51;;;;;;;17.43;15.90;;;26.10;99.10;;;;;;4992398;28;20642;-47
2022/08/16 08:44:19;;;;;;;16.17;14.87;;;26.20;99.20;;;;;;5010254;28;20452;-47
2022/08/16 08:46:45;;;;;;;14.80;13.60;;;26.20;99.20;;;;;;5010101;28;20456;-49
2022/08/16 08:49:12;;;;;;;14.60;13.40;;;26.20;99.10;;;;;;5009988;28;20472;-47
2022/08/16 08:51:41;;;;;;;14.30;12.90;;;26.30;99.00;;;;;;5010197;28;20452;-48
2022/08/16 08:54:13;;;;;;;16.70;15.00;;;26.40;98.80;;;;;;5010517;28;20444;-49
2022/08/16 08:56:44;;;;;;;16.13;13.80;;;26.40;98.80;;;;;;5011566;28;20524;-47
2022/08/16 08:59:32;;;;;;;15.67;14.20;;;26.50;98.60;;;;;;5010628;28;20516;-48
2022/08/16 09:01:59;;;;;;;14.73;13.27;;;26.50;98.50;;;;;;5009659;28;20455;-47
2022/08/16 09:04:30;;;;;;;15.53;12.70;;;26.50;98.20;;;;;;5010355;28;20451;-47
2022/08/16 09:06:58;;;;;;;14.77;13.27;;;26.60;97.90;;;;;;5007155;28;20548;-47
2022/08/16 09:09:26;;;;;;;14.63;13.30;;;26.60;97.80;;;;;;4999838;28;20480;-47
2022/08/16 09:11:57;;;;;;;16.47;14.80;;;26.60;97.70;;;;;;5010045;28;20957;-48
2022/08/16 09:14:24;;;;;;;12.90;11.80;;;26.60;97.60;;;;;;5009956;28;20448;-47
2022/08/16 09:16:52;;;;;;;13.80;12.70;;;26.60;97.50;;;;;;5010266;28;20456;-47
2022/08/16 09:19:20;;;;;;;13.17;11.83;;;26.70;97.10;;;;;;5009753;28;20476;-48
2022/08/16 09:21:48;;;;;;;11.30;10.33;;;26.70;96.90;;;;;;5009989;28;20458;-46
2022/08/16 09:24:16;;;;;;;13.03;11.93;;;26.80;96.60;;;;;;5011766;28;20436;-47
2022/08/16 09:26:43;;;;;;;13.50;12.30;;;26.70;96.50;;;;;;5006795;28;20889;-48
2022/08/16 09:29:11;;;;;;;14.40;12.83;;;26.90;96.00;;;;;;4991234;28;20457;-48
2022/08/16 09:31:38;;;;;;;12.30;10.80;;;26.90;95.60;;;;;;4990309;28;20986;-47
2022/08/16 09:34:04;;;;;;;15.90;14.30;;;27.00;95.50;;;;;;5001924;28;20998;-48
2022/08/16 09:36:31;;;;;;;13.37;12.13;;;27.20;95.40;;;;;;5011087;28;20800;-47
2022/08/16 09:38:58;;;;;;;12.67;11.57;;;27.00;95.40;;;;;;5010578;28;20458;-49
2022/08/16 09:41:25;;;;;;;14.40;12.70;;;27.10;95.20;;;;;;5011185;28;20445;-48
2022/08/16 09:43:51;;;;;;;14.50;13.20;;;27.10;95.10;;;;;;5013122;28;20484;-47
2022/08/16 09:46:19;;;;;;;14.40;13.07;;;27.10;95.00;;;;;;5014863;28;20800;-47
2022/08/16 09:48:46;;;;;;;15.93;13.93;;;27.20;95.00;;;;;;5014466;28;20894;-48
2022/08/16 09:51:13;;;;;;;14.07;12.77;;;27.20;94.90;;;;;;5014789;28;20806;-46
2022/08/16 09:53:41;;;;;;;14.20;12.80;;;27.20;94.60;;;;;;5014715;28;20439;-47
2022/08/16 09:56:14;;;;;;;18.23;12.87;;;27.30;94.50;;;;;;5015030;28;20428;-47
2022/08/16 09:58:41;;;;;;;14.30;12.80;;;27.20;94.30;;;;;;5014622;28;20854;-48
2022/08/16 10:01:07;;;;;;;14.10;12.90;;;27.20;94.00;;;;;;5014770;28;20436;-47
2022/08/16 10:03:35;;;;;;;15.30;13.13;;;27.30;93.90;;;;;;5014810;28;20487;-48
2022/08/16 10:06:02;;;;;;;14.50;13.00;;;27.30;93.60;;;;;;5014368;28;20443;-47
2022/08/16 10:08:30;;;;;;;16.43;12.50;;;27.40;93.50;;;;;;5014180;28;20436;-48
2022/08/16 10:13:43;;;;;;;15.03;12.00;;;27.40;93.50;;;;;;5014782;28;20432;-47
2022/08/16 10:16:12;;;;;;;15.17;13.87;;;27.40;93.30;;;;;;5014490;28;20448;-47
2022/08/16 10:18:42;;;;;;;12.07;11.07;;;27.50;93.20;;;;;;5039331;22;20472;-51
2022/08/16 10:21:09;;;;;;;12.10;11.00;;;27.60;93.00;;;;;;5013712;28;20842;-52
2022/08/16 10:23:36;;;;;;;13.30;12.10;;;27.70;92.80;;;;;;5014325;28;21077;-52
2022/08/16 10:26:02;;;;;;;11.77;10.30;;;27.80;92.30;;;;;;5014075;28;20480;-50
2022/08/16 10:28:30;;;;;;;12.70;11.40;;;27.90;91.70;;;;;;5013844;28;20460;-51
2022/08/16 10:30:57;;;;;;;11.90;10.23;;;27.90;91.40;;;;;;5013502;28;20469;-51
2022/08/16 10:33:25;;;;;;;10.40;9.30;;;28.00;91.20;;;;;;5008622;28;20444;-51
2022/08/16 10:35:53;;;;;;;10.13;9.17;;;28.10;90.40;;;;;;4994819;28;20449;-50
2022/08/16 10:38:20;;;;;;;10.00;9.20;;;28.20;90.30;;;;;;4994039;28;20441;-50
2022/08/16 10:40:47;;;;;;;10.17;9.37;;;28.30;89.40;;;;;;4994272;28;20873;-49
2022/08/16 10:43:14;;;;;;;10.00;8.73;;;28.40;88.70;;;;;;4994275;28;20977;-48
2022/08/16 10:45:41;;;;;;;10.23;8.40;;;28.40;87.30;;;;;;4994119;28;20441;-48
2022/08/16 10:48:11;;;;;;;8.37;7.67;;;28.50;86.60;;;;;;4994005;28;20523;-48
2022/08/16 10:50:38;;;;;;;11.53;8.53;;;28.70;85.30;;;;;;4994004;28;20840;-49
2022/08/16 10:53:06;;;;;;;9.00;8.20;;;28.80;85.30;;;;;;4994131;28;20543;-49
2022/08/16 10:55:35;;;;;;;9.37;8.57;;;28.90;84.90;;;;;;4993702;28;20570;-48
2022/08/16 10:58:03;;;;;;;10.67;8.43;;;29.00;83.70;;;;;;4992571;28;20457;-48
2022/08/16 11:00:31;;;;;;;9.90;9.00;;;29.10;83.10;;;;;;4993258;28;20894;-48
2022/08/16 11:02:59;;;;;;;9.07;8.20;;;29.20;83.30;;;;;;4993761;28;20476;-48
2022/08/16 11:05:26;;;;;;;10.03;9.13;;;29.20;83.40;;;;;;4993827;28;20448;-48
2022/08/16 11:07:52;;;;;;;10.70;9.60;;;29.30;84.10;;;;;;4994250;28;20438;-48
2022/08/16 11:10:24;;;;;;;9.87;9.07;;;29.30;83.40;;;;;;4993635;28;20461;-48
2022/08/16 11:12:51;;;;;;;10.30;9.43;;;29.70;83.10;;;;;;4994180;28;20467;-49
2022/08/16 11:15:18;;;;;;;11.53;10.03;;;29.30;82.70;;;;;;4994080;28;20822;-48
2022/08/16 11:17:45;;;;;;;10.03;9.20;;;29.30;82.60;;;;;;4993596;28;20468;-49
2022/08/16 11:20:16;;;;;;;10.00;9.10;;;29.30;81.40;;;;;;4992336;28;20484;-49
2022/08/16 11:22:43;;;;;;;9.87;8.97;;;29.30;80.80;;;;;;4992478;28;20523;-49
2022/08/16 11:25:11;;;;;;;13.27;9.13;;;29.30;80.70;;;;;;4994410;28;20519;-49
2022/08/16 11:27:39;;;;;;;9.80;8.90;;;29.40;81.00;;;;;;5012887;28;20436;-49
2022/08/16 11:30:08;;;;;;;10.03;8.93;;;29.40;80.90;;;;;;5013664;28;20451;-48
2022/08/16 11:32:36;;;;;;;12.23;10.40;;;29.50;80.50;;;;;;5013163;28;20436;-49
2022/08/16 11:35:07;;;;;;;10.67;9.87;;;29.50;80.10;;;;;;4994622;28;20445;-49
2022/08/16 11:37:34;;;;;;;10.50;9.40;;;29.50;80.00;;;;;;4993644;28;20433;-48
2022/08/16 11:40:01;;;;;;;8.97;8.17;;;29.60;80.20;;;;;;4992738;28;20465;-49
2022/08/16 11:42:28;;;;;;;9.50;8.60;;;29.60;80.20;;;;;;4993000;28;20922;-49
2022/08/16 11:44:56;;;;;;;11.93;10.20;;;29.60;79.30;;;;;;4993398;28;20437;-49
2022/08/16 11:47:22;;;;;;;14.30;11.40;;;29.60;78.90;;;;;;4992660;28;20437;-49
2022/08/16 11:49:50;;;;;;;13.33;10.37;;;29.60;78.50;;;;;;4991693;28;20787;-48
2022/08/16 11:52:17;;;;;;;11.50;10.20;;;29.60;78.40;;;;;;4991782;28;20449;-48
2022/08/16 11:54:44;;;;;;;10.17;9.27;;;29.50;78.40;;;;;;4991940;28;20791;-50
2022/08/16 11:57:12;;;;;;;10.50;9.60;;;29.50;78.10;;;;;;4990067;28;20457;-49
2022/08/16 11:59:40;;;;;;;11.30;10.30;;;29.60;78.50;;;;;;4991294;28;20816;-49
2022/08/16 12:02:09;;;;;;;10.37;9.57;;;29.60;78.20;;;;;;4991667;28;20437;-50
2022/08/16 12:04:36;;;;;;;10.33;9.33;;;29.70;77.50;;;;;;4992914;28;20485;-48
2022/08/16 12:07:04;;;;;;;10.13;9.20;;;29.60;77.10;;;;;;4992049;28;20425;-49
2022/08/16 12:09:31;;;;;;;13.27;9.03;;;29.80;76.90;;;;;;4992320;28;20466;-49
2022/08/16 12:11:58;;;;;;;9.37;8.47;;;30.00;76.50;;;;;;4992332;28;20440;-49
2022/08/16 12:14:25;;;;;;;9.53;8.60;;;30.10;75.40;;;;;;4991580;28;20965;-49
2022/08/16 12:16:54;;;;;;;10.67;9.57;;;30.10;75.20;;;;;;4992405;28;20468;-49
2022/08/16 12:19:24;;;;;;;9.30;8.50;;;30.10;74.40;;;;;;4992528;28;20473;-49
2022/08/16 12:21:51;;;;;;;10.80;9.70;;;30.20;74.50;;;;;;4992391;28;20933;-49
2022/08/16 12:24:17;;;;;;;10.43;9.20;;;30.20;74.50;;;;;;4991424;28;20477;-50
2022/08/16 12:26:44;;;;;;;9.40;8.33;;;30.20;73.90;;;;;;5006394;28;20455;-50
2022/08/16 12:29:11;;;;;;;8.50;7.67;;;30.20;74.40;;;;;;5011804;28;20470;-49
2022/08/16 12:31:38;;;;;;;11.27;7.60;;;30.20;73.90;;;;;;5012047;28;20808;-49
2022/08/16 12:34:06;;;;;;;10.10;9.20;;;30.20;74.50;;;;;;5001636;28;20758;-49
2022/08/16 12:36:34;;;;;;;9.70;8.73;;;30.20;73.40;;;;;;4992569;28;20793;-49
2022/08/16 12:39:02;;;;;;;11.40;9.23;;;30.20;72.80;;;;;;4992491;28;20457;-49